sensor_id;sensor_type;location;lat;lon;timestamp;pressure;altitude;pressure_sealevel;temperature;humidity
45523;BME280;31254;51.680;5.394;2022-09-30T00:01:42;100851.00;;;7.60;81.94
45523;BME280;31254;51.680;5.394;2022-09-30T00:04:15;100854.94;;;7.56;81.95
45523;BME280;31254;51.680;5.394;2022-09-30T00:06:47;100844.63;;;7.50;81.93
45523;BME280;31254;51.680;5.394;2022-09-30T00:09:15;100846.34;;;7.51;82.08
45523;BME280;31254;51.680;5.394;2022-09-30T00:11:42;100837.13;;;7.42;82.05
45523;BME280;31254;51.680;5.394;2022-09-30T00:14:21;100854.75;;;7.48;82.37
45523;BME280;31254;51.680;5.394;2022-09-30T00:16:48;100856.72;;;7.46;82.19
45523;BME280;31254;51.680;5.394;2022-09-30T00:19:15;100841.34;;;7.35;82.41
45523;BME280;31254;51.680;5.394;2022-09-30T00:21:41;100855.53;;;7.39;82.63
45523;BME280;31254;51.680;5.394;2022-09-30T00:24:10;100841.34;;;7.35;82.34
45523;BME280;31254;51.680;5.394;2022-09-30T00:26:39;100846.63;;;7.37;82.38
45523;BME280;31254;51.680;5.394;2022-09-30T00:29:08;100837.91;;;7.33;82.35
45523;BME280;31254;51.680;5.394;2022-09-30T00:31:35;100842.47;;;7.32;82.49
45523;BME280;31254;51.680;5.394;2022-09-30T00:34:02;100848.16;;;7.29;82.58
45523;BME280;31254;51.680;5.394;2022-09-30T00:36:38;100846.41;;;7.28;82.44
45523;BME280;31254;51.680;5.394;2022-09-30T00:39:07;100843.59;;;7.30;82.30
45523;BME280;31254;51.680;5.394;2022-09-30T00:41:37;100848.16;;;7.29;82.31
45523;BME280;31254;51.680;5.394;2022-09-30T00:50:31;100846.06;;;7.22;82.48
45523;BME280;31254;51.680;5.394;2022-09-30T00:58:22;100854.72;;;7.16;82.84
45523;BME280;31254;51.680;5.394;2022-09-30T01:00:52;100863.25;;;7.11;82.61
45523;BME280;31254;51.680;5.394;2022-09-30T01:03:20;100860.28;;;7.14;82.61
45523;BME280;31254;51.680;5.394;2022-09-30T01:05:50;100846.38;;;7.07;83.06
45523;BME280;31254;51.680;5.394;2022-09-30T01:08:20;100850.94;;;7.07;82.40
45523;BME280;31254;51.680;5.394;2022-09-30T01:10:50;100845.63;;;7.05;82.91
45523;BME280;31254;51.680;5.394;2022-09-30T01:13:17;100853.66;;;7.07;82.92
45523;BME280;31254;51.680;5.394;2022-09-30T01:21:10;100852.69;;;6.97;82.97
45523;BME280;31254;51.680;5.394;2022-09-30T01:35:08;100847.41;;;6.84;82.66
45523;BME280;31254;51.680;5.394;2022-09-30T01:41:21;100860.72;;;6.87;82.97
45523;BME280;31254;51.680;5.394;2022-09-30T01:49:47;100857.38;;;6.83;83.11
45523;BME280;31254;51.680;5.394;2022-09-30T01:52:22;100854.66;;;6.83;83.00
45523;BME280;31254;51.680;5.394;2022-09-30T02:00:16;100858.03;;;6.75;83.01
45523;BME280;31254;51.680;5.394;2022-09-30T02:02:51;100851.97;;;6.72;83.29
45523;BME280;31254;51.680;5.394;2022-09-30T02:05:24;100859.38;;;6.70;83.38
45523;BME280;31254;51.680;5.394;2022-09-30T02:08:18;100862.34;;;6.67;83.45
45523;BME280;31254;51.680;5.394;2022-09-30T02:10:57;100858.78;;;6.66;83.52
45523;BME280;31254;51.680;5.394;2022-09-30T02:13:38;100862.56;;;6.64;83.44
45523;BME280;31254;51.680;5.394;2022-09-30T02:16:12;100855.69;;;6.59;83.89
45523;BME280;31254;51.680;5.394;2022-09-30T02:18:48;100857.16;;;6.64;83.52
45523;BME280;31254;51.680;5.394;2022-09-30T02:21:21;100854.56;;;6.62;83.69
45523;BME280;31254;51.680;5.394;2022-09-30T02:23:52;100854.81;;;6.59;83.71
45523;BME280;31254;51.680;5.394;2022-09-30T02:26:23;100855.56;;;6.61;83.65
45523;BME280;31254;51.680;5.394;2022-09-30T02:29:15;100848.19;;;6.52;83.78
45523;BME280;31254;51.680;5.394;2022-09-30T02:31:45;100855.22;;;6.54;84.02
45523;BME280;31254;51.680;5.394;2022-09-30T02:34:21;100855.06;;;6.56;83.76
45523;BME280;31254;51.680;5.394;2022-09-30T02:36:54;100857.91;;;6.54;84.03
45523;BME280;31254;51.680;5.394;2022-09-30T02:39:44;100847.56;;;6.48;84.14
45523;BME280;31254;51.680;5.394;2022-09-30T02:42:19;100856.06;;;6.55;84.10
45523;BME280;31254;51.680;5.394;2022-09-30T02:44:49;100857.03;;;6.54;84.14
45523;BME280;31254;51.680;5.394;2022-09-30T02:47:25;100849.28;;;6.49;83.90
45523;BME280;31254;51.680;5.394;2022-09-30T02:55:34;100854.69;;;6.49;84.05
45523;BME280;31254;51.680;5.394;2022-09-30T02:58:12;100851.38;;;6.46;84.05
45523;BME280;31254;51.680;5.394;2022-09-30T03:00:41;100862.09;;;6.47;84.41
45523;BME280;31254;51.680;5.394;2022-09-30T03:03:20;100851.50;;;6.44;84.38
45523;BME280;31254;51.680;5.394;2022-09-30T03:05:48;100856.19;;;6.42;84.33
45523;BME280;31254;51.680;5.394;2022-09-30T03:08:16;100861.47;;;6.44;84.10
45523;BME280;31254;51.680;5.394;2022-09-30T03:10:47;100851.00;;;6.39;84.21
45523;BME280;31254;51.680;5.394;2022-09-30T03:16:37;100870.09;;;6.37;84.06
45523;BME280;31254;51.680;5.394;2022-09-30T03:22:13;100875.03;;;6.32;84.44
45523;BME280;31254;51.680;5.394;2022-09-30T03:33:52;100871.19;;;6.23;84.43
45523;BME280;31254;51.680;5.394;2022-09-30T03:36:40;100853.47;;;6.19;84.32
45523;BME280;31254;51.680;5.394;2022-09-30T03:39:31;100872.91;;;6.25;84.11
45523;BME280;31254;51.680;5.394;2022-09-30T03:42:09;100875.75;;;6.23;84.69
45523;BME280;31254;51.680;5.394;2022-09-30T03:45:03;100872.91;;;6.13;84.71
45523;BME280;31254;51.680;5.394;2022-09-30T03:47:33;100881.41;;;6.20;84.54
45523;BME280;31254;51.680;5.394;2022-09-30T03:50:05;100884.00;;;6.21;84.82
45523;BME280;31254;51.680;5.394;2022-09-30T03:52:35;100889.41;;;6.21;84.63
45523;BME280;31254;51.680;5.394;2022-09-30T03:55:04;100906.56;;;6.22;84.94
45523;BME280;31254;51.680;5.394;2022-09-30T03:57:33;100902.22;;;6.19;84.96
45523;BME280;31254;51.680;5.394;2022-09-30T04:00:00;100911.31;;;6.18;84.90
45523;BME280;31254;51.680;5.394;2022-09-30T04:02:27;100902.69;;;6.13;85.05
45523;BME280;31254;51.680;5.394;2022-09-30T04:04:53;100902.94;;;6.10;85.09
45523;BME280;31254;51.680;5.394;2022-09-30T04:07:22;100913.78;;;6.10;85.07
45523;BME280;31254;51.680;5.394;2022-09-30T04:09:49;100933.09;;;6.17;85.22
45523;BME280;31254;51.680;5.394;2022-09-30T04:12:15;100943.94;;;6.17;85.43
45523;BME280;31254;51.680;5.394;2022-09-30T04:14:42;100942.72;;;6.10;85.18
45523;BME280;31254;51.680;5.394;2022-09-30T04:17:08;100939.75;;;6.13;85.30
45523;BME280;31254;51.680;5.394;2022-09-30T04:19:38;100946.78;;;6.15;85.52
45523;BME280;31254;51.680;5.394;2022-09-30T04:22:06;100946.78;;;6.15;85.88
45523;BME280;31254;51.680;5.394;2022-09-30T04:24:35;100946.78;;;6.15;85.53
45523;BME280;31254;51.680;5.394;2022-09-30T04:27:05;100936.44;;;6.09;85.65
45523;BME280;31254;51.680;5.394;2022-09-30T04:29:31;100930.03;;;6.10;85.53
45523;BME280;31254;51.680;5.394;2022-09-30T04:31:59;100936.94;;;6.14;85.83
45523;BME280;31254;51.680;5.394;2022-09-30T04:34:25;100936.94;;;6.14;85.73
45523;BME280;31254;51.680;5.394;2022-09-30T04:36:52;100942.59;;;6.11;85.59
45523;BME280;31254;51.680;5.394;2022-09-30T04:39:20;100942.09;;;6.06;85.77
45523;BME280;31254;51.680;5.394;2022-09-30T04:41:52;100951.91;;;6.07;85.73
45523;BME280;31254;51.680;5.394;2022-09-30T04:44:20;100952.03;;;6.06;85.86
45523;BME280;31254;51.680;5.394;2022-09-30T04:46:46;100952.16;;;6.04;85.79
45523;BME280;31254;51.680;5.394;2022-09-30T04:49:13;100955.88;;;6.03;85.79
45523;BME280;31254;51.680;5.394;2022-09-30T04:51:40;100962.13;;;6.03;85.86
45523;BME280;31254;51.680;5.394;2022-09-30T04:54:11;100961.28;;;6.03;85.73
45523;BME280;31254;51.680;5.394;2022-09-30T04:56:38;100969.53;;;6.01;86.31
45523;BME280;31254;51.680;5.394;2022-09-30T04:59:05;100968.78;;;5.99;86.41
45523;BME280;31254;51.680;5.394;2022-09-30T05:01:32;100958.38;;;5.93;86.40
45523;BME280;31254;51.680;5.394;2022-09-30T05:04:01;100960.47;;;5.90;86.12
45523;BME280;31254;51.680;5.394;2022-09-30T05:06:28;100978.94;;;5.96;86.25
45523;BME280;31254;51.680;5.394;2022-09-30T05:08:54;100969.94;;;5.95;86.20
45523;BME280;31254;51.680;5.394;2022-09-30T05:11:21;100962.19;;;5.91;86.47
45523;BME280;31254;51.680;5.394;2022-09-30T05:13:48;100969.94;;;5.95;85.93
45523;BME280;31254;51.680;5.394;2022-09-30T05:16:17;100932.34;;;5.79;86.04
45523;BME280;31254;51.680;5.394;2022-09-30T05:18:46;100958.50;;;5.92;85.92
45523;BME280;31254;51.680;5.394;2022-09-30T05:21:19;100969.94;;;5.95;86.06
45523;BME280;31254;51.680;5.394;2022-09-30T05:23:48;100963.81;;;5.93;86.00
45523;BME280;31254;51.680;5.394;2022-09-30T05:26:15;100969.09;;;5.95;86.03
45523;BME280;31254;51.680;5.394;2022-09-30T05:28:44;100975.28;;;5.97;86.12
45523;BME280;31254;51.680;5.394;2022-09-30T05:31:10;100972.66;;;5.95;85.96
45523;BME280;31254;51.680;5.394;2022-09-30T05:33:39;100980.91;;;5.94;86.20
45523;BME280;31254;51.680;5.394;2022-09-30T05:36:09;100992.69;;;5.93;86.13
45523;BME280;31254;51.680;5.394;2022-09-30T05:38:37;100998.13;;;5.93;86.13
45523;BME280;31254;51.680;5.394;2022-09-30T05:41:11;101003.53;;;5.93;86.05
45523;BME280;31254;51.680;5.394;2022-09-30T05:43:39;100999.47;;;5.87;85.88
45523;BME280;31254;51.680;5.394;2022-09-30T05:46:13;101013.28;;;5.95;86.20
45523;BME280;31254;51.680;5.394;2022-09-30T05:48:40;101022.19;;;5.97;85.93
45523;BME280;31254;51.680;5.394;2022-09-30T05:51:06;101019.34;;;5.99;85.88
45523;BME280;31254;51.680;5.394;2022-09-30T05:53:37;101025.53;;;6.01;85.92
45523;BME280;31254;51.680;5.394;2022-09-30T05:56:05;101017.75;;;5.96;85.99
45523;BME280;31254;51.680;5.394;2022-09-30T05:58:32;101027.38;;;6.00;85.99
45523;BME280;31254;51.680;5.394;2022-09-30T06:01:06;101029.09;;;6.01;85.71
45523;BME280;31254;51.680;5.394;2022-09-30T06:03:39;101023.81;;;6.00;85.68
45523;BME280;31254;51.680;5.394;2022-09-30T06:06:06;101019.75;;;6.06;85.93
45523;BME280;31254;51.680;5.394;2022-09-30T06:08:36;101024.53;;;6.02;85.66
45523;BME280;31254;51.680;5.394;2022-09-30T06:11:07;101032.72;;;6.13;85.41
45523;BME280;31254;51.680;5.394;2022-09-30T06:13:37;101027.31;;;6.13;85.38
45523;BME280;31254;51.680;5.394;2022-09-30T06:16:08;101044.06;;;6.18;85.49
45523;BME280;31254;51.680;5.394;2022-09-30T06:18:36;101030.88;;;6.14;85.21
45523;BME280;31254;51.680;5.394;2022-09-30T06:21:08;101053.47;;;6.26;85.18
45523;BME280;31254;51.680;5.394;2022-09-30T06:23:36;101042.63;;;6.26;85.17
45523;BME280;31254;51.680;5.394;2022-09-30T06:26:06;101043.66;;;6.36;85.19
45523;BME280;31254;51.680;5.394;2022-09-30T06:28:36;101048.59;;;6.42;85.09
45523;BME280;31254;51.680;5.394;2022-09-30T06:31:04;101044.41;;;6.49;85.04
45523;BME280;31254;51.680;5.394;2022-09-30T06:33:32;101041.25;;;6.55;84.79
45523;BME280;31254;51.680;5.394;2022-09-30T06:36:03;101032.63;;;6.62;84.71
45523;BME280;31254;51.680;5.394;2022-09-30T06:38:33;101043.75;;;6.70;84.51
45523;BME280;31254;51.680;5.394;2022-09-30T06:41:05;101045.97;;;6.76;84.57
45523;BME280;31254;51.680;5.394;2022-09-30T06:43:34;101044.72;;;6.80;84.50
45523;BME280;31254;51.680;5.394;2022-09-30T06:46:12;101031.81;;;6.84;84.48
45523;BME280;31254;51.680;5.394;2022-09-30T06:48:45;101037.38;;;6.93;84.38
45523;BME280;31254;51.680;5.394;2022-09-30T06:51:12;101039.56;;;7.00;84.39
45523;BME280;31254;51.680;5.394;2022-09-30T06:53:38;101038.38;;;7.04;84.35
45523;BME280;31254;51.680;5.394;2022-09-30T06:56:05;101033.31;;;7.10;84.20
45523;BME280;31254;51.680;5.394;2022-09-30T06:58:32;101036.38;;;7.17;84.45
45523;BME280;31254;51.680;5.394;2022-09-30T07:01:03;101034.94;;;7.24;84.31
45523;BME280;31254;51.680;5.394;2022-09-30T07:03:32;101041.56;;;7.31;84.43
45523;BME280;31254;51.680;5.394;2022-09-30T07:06:02;101039.34;;;7.37;84.50
45523;BME280;31254;51.680;5.394;2022-09-30T07:08:32;101040.34;;;7.47;84.67
45523;BME280;31254;51.680;5.394;2022-09-30T07:11:00;101035.38;;;7.52;84.34
45523;BME280;31254;51.680;5.394;2022-09-30T07:13:30;101027.97;;;7.54;84.16
45523;BME280;31254;51.680;5.394;2022-09-30T07:15:58;101030.19;;;7.60;84.28
45523;BME280;31254;51.680;5.394;2022-09-30T07:18:25;101026.22;;;7.64;84.61
45523;BME280;31254;51.680;5.394;2022-09-30T07:20:55;101029.19;;;7.73;84.31
45523;BME280;31254;51.680;5.394;2022-09-30T07:23:24;101032.00;;;7.82;84.36
45523;BME280;31254;51.680;5.394;2022-09-30T07:25:58;101044.94;;;7.90;84.16
45523;BME280;31254;51.680;5.394;2022-09-30T07:28:30;101047.13;;;7.96;84.26
45523;BME280;31254;51.680;5.394;2022-09-30T07:31:01;101046.63;;;8.02;83.85
45523;BME280;31254;51.680;5.394;2022-09-30T07:33:51;101045.88;;;8.12;83.62
45523;BME280;31254;51.680;5.394;2022-09-30T07:36:22;101050.50;;;8.21;84.16
45523;BME280;31254;51.680;5.394;2022-09-30T07:38:59;101047.16;;;8.29;83.60
45523;BME280;31254;51.680;5.394;2022-09-30T07:41:34;101050.94;;;8.37;83.95
45523;BME280;31254;51.680;5.394;2022-09-30T07:44:02;101024.75;;;8.36;83.73
45523;BME280;31254;51.680;5.394;2022-09-30T07:46:32;101046.69;;;8.56;83.46
45523;BME280;31254;51.680;5.394;2022-09-30T07:49:12;101041.56;;;8.63;83.76
45523;BME280;31254;51.680;5.394;2022-09-30T07:51:41;101040.91;;;8.70;83.33
45523;BME280;31254;51.680;5.394;2022-09-30T07:54:14;101029.75;;;8.73;83.29
45523;BME280;31254;51.680;5.394;2022-09-30T07:56:42;101013.44;;;8.73;83.46
45523;BME280;31254;51.680;5.394;2022-09-30T07:59:31;101032.19;;;8.98;83.69
45523;BME280;31254;51.680;5.394;2022-09-30T08:01:58;101030.66;;;9.05;83.32
45523;BME280;31254;51.680;5.394;2022-09-30T08:04:28;101017.75;;;9.07;83.48
45523;BME280;31254;51.680;5.394;2022-09-30T08:07:00;101011.91;;;9.11;83.82
45523;BME280;31254;51.680;5.394;2022-09-30T08:09:28;101026.75;;;9.28;83.64
45523;BME280;31254;51.680;5.394;2022-09-30T08:12:03;101030.50;;;9.37;83.50
45523;BME280;31254;51.680;5.394;2022-09-30T08:14:30;101034.72;;;9.51;83.70
45523;BME280;31254;51.680;5.394;2022-09-30T08:17:00;101037.16;;;10.63;80.54
45523;BME280;31254;51.680;5.394;2022-09-30T08:19:28;101023.25;;;13.64;69.70
45523;BME280;31254;51.680;5.394;2022-09-30T08:21:56;101019.19;;;15.80;62.38
45523;BME280;31254;51.680;5.394;2022-09-30T08:24:23;101015.19;;;17.13;58.75
45523;BME280;31254;51.680;5.394;2022-09-30T08:26:52;101003.16;;;17.96;56.52
45523;BME280;31254;51.680;5.394;2022-09-30T08:29:21;101008.25;;;18.35;55.96
45523;BME280;31254;51.680;5.394;2022-09-30T08:32:08;101006.31;;;19.07;54.76
45523;BME280;31254;51.680;5.394;2022-09-30T08:34:37;101003.09;;;19.39;54.06
45523;BME280;31254;51.680;5.394;2022-09-30T08:37:03;101000.03;;;19.62;53.61
45523;BME280;31254;51.680;5.394;2022-09-30T08:39:36;100999.19;;;19.68;53.91
45523;BME280;31254;51.680;5.394;2022-09-30T08:42:16;100999.34;;;19.95;53.39
45523;BME280;31254;51.680;5.394;2022-09-30T08:45:19;101011.28;;;20.02;53.85
45523;BME280;31254;51.680;5.394;2022-09-30T08:53:39;101021.47;;;19.95;54.51
45523;BME280;31254;51.680;5.394;2022-09-30T08:56:07;101027.38;;;19.78;54.89
45523;BME280;31254;51.680;5.394;2022-09-30T08:58:40;101031.56;;;19.67;55.38
45523;BME280;31254;51.680;5.394;2022-09-30T09:01:29;101031.28;;;19.55;55.66
45523;BME280;31254;51.680;5.394;2022-09-30T09:03:58;101007.34;;;19.34;56.83
45523;BME280;31254;51.680;5.394;2022-09-30T09:06:32;101021.31;;;19.20;57.42
45523;BME280;31254;51.680;5.394;2022-09-30T09:09:15;101028.19;;;19.02;57.80
45523;BME280;31254;51.680;5.394;2022-09-30T09:14:58;101038.63;;;18.57;59.96
45523;BME280;31254;51.680;5.394;2022-09-30T09:20:22;101033.63;;;18.45;60.57
45523;BME280;31254;51.680;5.394;2022-09-30T09:22:50;101034.22;;;18.41;60.61
45523;BME280;31254;51.680;5.394;2022-09-30T09:25:24;101032.56;;;18.25;61.15
45523;BME280;31254;51.680;5.394;2022-09-30T09:28:01;101039.06;;;18.17;61.50
45523;BME280;31254;51.680;5.394;2022-09-30T09:30:35;101042.50;;;18.19;61.59
45523;BME280;31254;51.680;5.394;2022-09-30T09:33:19;101023.69;;;18.08;62.00
45523;BME280;31254;51.680;5.394;2022-09-30T09:36:18;101037.81;;;18.20;62.58
45523;BME280;31254;51.680;5.394;2022-09-30T09:44:57;101026.13;;;18.18;62.68
45523;BME280;31254;51.680;5.394;2022-09-30T09:47:25;101021.25;;;18.20;62.72
45523;BME280;31254;51.680;5.394;2022-09-30T09:49:56;101015.75;;;18.20;62.85
45523;BME280;31254;51.680;5.394;2022-09-30T09:55:41;101020.16;;;18.14;63.26
45523;BME280;31254;51.680;5.394;2022-09-30T09:58:13;101010.09;;;18.06;63.29
45523;BME280;31254;51.680;5.394;2022-09-30T10:00:40;101013.75;;;17.77;63.88
45523;BME280;31254;51.680;5.394;2022-09-30T10:03:15;101018.25;;;18.15;63.24
45523;BME280;31254;51.680;5.394;2022-09-30T10:06:09;101020.03;;;18.22;63.70
45523;BME280;31254;51.680;5.394;2022-09-30T10:08:52;101024.28;;;18.25;63.66
45523;BME280;31254;51.680;5.394;2022-09-30T10:11:25;101023.44;;;18.24;63.57
45523;BME280;31254;51.680;5.394;2022-09-30T10:13:56;101020.47;;;18.26;63.75
45523;BME280;31254;51.680;5.394;2022-09-30T10:16:35;101039.88;;;18.33;64.07
45523;BME280;31254;51.680;5.394;2022-09-30T10:19:04;101031.13;;;18.29;64.17
45523;BME280;31254;51.680;5.394;2022-09-30T10:21:47;101030.56;;;18.34;64.11
45523;BME280;31254;51.680;5.394;2022-09-30T10:24:28;101030.88;;;18.45;64.12
45523;BME280;31254;51.680;5.394;2022-09-30T10:26:57;101026.44;;;18.51;63.74
45523;BME280;31254;51.680;5.394;2022-09-30T10:29:32;101030.78;;;18.60;63.72
45523;BME280;31254;51.680;5.394;2022-09-30T10:32:06;101024.88;;;18.63;63.42
45523;BME280;31254;51.680;5.394;2022-09-30T10:34:37;101033.72;;;18.80;63.21
45523;BME280;31254;51.680;5.394;2022-09-30T10:37:17;101018.81;;;18.75;63.22
45523;BME280;31254;51.680;5.394;2022-09-30T10:40:04;101023.63;;;18.88;62.86
45523;BME280;31254;51.680;5.394;2022-09-30T10:42:34;101024.50;;;18.95;62.82
45523;BME280;31254;51.680;5.394;2022-09-30T10:45:21;101025.53;;;19.15;62.63
45523;BME280;31254;51.680;5.394;2022-09-30T10:47:52;101029.84;;;19.25;61.85
45523;BME280;31254;51.680;5.394;2022-09-30T10:50:24;101023.13;;;19.41;61.22
45523;BME280;31254;51.680;5.394;2022-09-30T10:52:55;101027.00;;;19.53;60.92
45523;BME280;31254;51.680;5.394;2022-09-30T10:57:52;101014.72;;;19.62;60.36
45523;BME280;31254;51.680;5.394;2022-09-30T11:00:21;101018.94;;;19.58;59.99
45523;BME280;31254;51.680;5.394;2022-09-30T11:03:09;101016.25;;;19.71;60.32
45523;BME280;31254;51.680;5.394;2022-09-30T11:05:40;101007.13;;;19.78;59.81
45523;BME280;31254;51.680;5.394;2022-09-30T11:08:27;101024.41;;;19.80;59.62
45523;BME280;31254;51.680;5.394;2022-09-30T11:11:13;101016.91;;;19.73;60.03
45523;BME280;31254;51.680;5.394;2022-09-30T11:13:58;101016.91;;;19.73;59.52
45523;BME280;31254;51.680;5.394;2022-09-30T11:16:42;101007.09;;;19.71;59.28
45523;BME280;31254;51.680;5.394;2022-09-30T11:19:23;100997.38;;;19.82;59.40
45523;BME280;31254;51.680;5.394;2022-09-30T11:22:08;101009.78;;;19.99;59.15
45523;BME280;31254;51.680;5.394;2022-09-30T11:24:45;101010.72;;;20.26;58.84
45523;BME280;31254;51.680;5.394;2022-09-30T11:27:29;101016.22;;;20.20;57.46
45523;BME280;31254;51.680;5.394;2022-09-30T11:44:45;100994.94;;;20.40;56.78
45523;BME280;31254;51.680;5.394;2022-09-30T11:47:33;100988.31;;;20.15;57.34
45523;BME280;31254;51.680;5.394;2022-09-30T11:58:27;100983.44;;;19.62;58.31
45523;BME280;31254;51.680;5.394;2022-09-30T12:03:57;100983.47;;;19.27;58.76
45523;BME280;31254;51.680;5.394;2022-09-30T12:08:56;100983.16;;;19.08;58.69
45523;BME280;31254;51.680;5.394;2022-09-30T12:11:34;100977.59;;;19.43;58.05
45523;BME280;31254;51.680;5.394;2022-09-30T12:14:12;100978.34;;;19.65;57.45
45523;BME280;31254;51.680;5.394;2022-09-30T12:16:44;100962.75;;;19.51;57.39
45523;BME280;31254;51.680;5.394;2022-09-30T12:19:16;100958.94;;;19.52;57.83
45523;BME280;31254;51.680;5.394;2022-09-30T12:22:00;100963.50;;;19.31;54.53
45523;BME280;31254;51.680;5.394;2022-09-30T12:24:34;100963.50;;;19.31;55.95
45523;BME280;31254;51.680;5.394;2022-09-30T12:27:32;100959.13;;;19.50;56.55
45523;BME280;31254;51.680;5.394;2022-09-30T12:30:20;100958.66;;;19.88;56.17
45523;BME280;31254;51.680;5.394;2022-09-30T12:36:02;100942.50;;;20.05;55.85
45523;BME280;31254;51.680;5.394;2022-09-30T12:48:44;100933.59;;;20.84;53.13
45523;BME280;31254;51.680;5.394;2022-09-30T12:51:42;100943.38;;;20.79;54.00
45523;BME280;31254;51.680;5.394;2022-09-30T12:54:11;100938.25;;;20.63;54.06
45523;BME280;31254;51.680;5.394;2022-09-30T12:56:42;100932.31;;;20.53;53.80
45523;BME280;31254;51.680;5.394;2022-09-30T12:59:10;100934.00;;;20.60;53.82
45523;BME280;31254;51.680;5.394;2022-09-30T13:01:39;100935.09;;;20.73;53.58
45523;BME280;31254;51.680;5.394;2022-09-30T13:12:24;100931.44;;;20.12;53.78
45523;BME280;31254;51.680;5.394;2022-09-30T13:35:47;100905.03;;;20.30;53.30
45523;BME280;31254;51.680;5.394;2022-09-30T13:38:21;100908.44;;;20.25;52.94
45523;BME280;31254;51.680;5.394;2022-09-30T13:41:07;100894.81;;;20.17;53.25
45523;BME280;31254;51.680;5.394;2022-09-30T13:46:26;100899.91;;;20.20;53.01
45523;BME280;31254;51.680;5.394;2022-09-30T13:49:04;100899.91;;;20.33;52.98
45523;BME280;31254;51.680;5.394;2022-09-30T13:51:36;100892.22;;;20.42;52.66
45523;BME280;31254;51.680;5.394;2022-09-30T13:54:11;100885.44;;;20.38;52.69
45523;BME280;31254;51.680;5.394;2022-09-30T13:56:42;100882.88;;;20.36;53.03
45523;BME280;31254;51.680;5.394;2022-09-30T14:05:06;100883.94;;;20.15;53.21
45523;BME280;31254;51.680;5.394;2022-09-30T14:07:59;100885.00;;;20.07;53.86
45523;BME280;31254;51.680;5.394;2022-09-30T14:13:17;100878.78;;;19.79;54.03
45523;BME280;31254;51.680;5.394;2022-09-30T14:24:23;100874.63;;;19.48;53.86
45523;BME280;31254;51.680;5.394;2022-09-30T14:32:30;100849.34;;;19.64;52.84
45523;BME280;31254;51.680;5.394;2022-09-30T14:34:59;100868.72;;;19.64;52.75
45523;BME280;31254;51.680;5.394;2022-09-30T14:37:44;100856.75;;;19.44;53.07
45523;BME280;31254;51.680;5.394;2022-09-30T14:40:17;100869.06;;;19.34;53.05
45523;BME280;31254;51.680;5.394;2022-09-30T14:42:46;100859.84;;;19.21;52.92
45523;BME280;31254;51.680;5.394;2022-09-30T14:45:21;100864.72;;;19.12;53.07
45523;BME280;31254;51.680;5.394;2022-09-30T14:47:54;100848.31;;;19.04;53.13
45523;BME280;31254;51.680;5.394;2022-09-30T14:50:26;100852.69;;;18.91;53.40
45523;BME280;31254;51.680;5.394;2022-09-30T14:52:53;100865.03;;;18.89;51.98
45523;BME280;31254;51.680;5.394;2022-09-30T15:00:55;100846.03;;;18.79;53.38
45523;BME280;31254;51.680;5.394;2022-09-30T15:03:24;100851.56;;;18.79;53.31
45523;BME280;31254;51.680;5.394;2022-09-30T15:05:52;100855.44;;;18.85;53.25
45523;BME280;31254;51.680;5.394;2022-09-30T15:08:20;100853.09;;;18.88;53.33
45523;BME280;31254;51.680;5.394;2022-09-30T15:10:48;100852.28;;;18.94;53.16
45523;BME280;31254;51.680;5.394;2022-09-30T15:13:17;100842.56;;;18.98;53.20
45523;BME280;31254;51.680;5.394;2022-09-30T15:15:45;100842.59;;;19.12;53.18
45523;BME280;31254;51.680;5.394;2022-09-30T15:18:31;100840.69;;;19.12;53.29
45523;BME280;31254;51.680;5.394;2022-09-30T15:21:21;100843.00;;;19.09;53.12
45523;BME280;31254;51.680;5.394;2022-09-30T15:23:54;100837.47;;;19.02;53.16
45523;BME280;31254;51.680;5.394;2022-09-30T15:26:25;100845.94;;;19.00;52.46
45523;BME280;31254;51.680;5.394;2022-09-30T15:28:52;100851.25;;;18.95;52.80
45523;BME280;31254;51.680;5.394;2022-09-30T15:31:23;100852.19;;;18.81;52.78
45523;BME280;31254;51.680;5.394;2022-09-30T15:34:14;100850.06;;;18.76;53.45
45523;BME280;31254;51.680;5.394;2022-09-30T15:36:59;100856.22;;;18.78;53.36
45523;BME280;31254;51.680;5.394;2022-09-30T15:39:39;100859.78;;;18.72;53.31
45523;BME280;31254;51.680;5.394;2022-09-30T15:42:38;100838.53;;;18.66;53.46
45523;BME280;31254;51.680;5.394;2022-09-30T15:50:47;100855.19;;;18.51;53.69
45523;BME280;31254;51.680;5.394;2022-09-30T15:53:23;100858.72;;;18.38;54.10
45523;BME280;31254;51.680;5.394;2022-09-30T15:55:57;100867.09;;;18.23;54.36
45523;BME280;31254;51.680;5.394;2022-09-30T15:58:38;100862.06;;;18.05;54.25
45523;BME280;31254;51.680;5.394;2022-09-30T16:01:22;100869.50;;;18.05;54.44
45523;BME280;31254;51.680;5.394;2022-09-30T16:03:55;100865.16;;;17.96;54.23
45523;BME280;31254;51.680;5.394;2022-09-30T16:09:00;100869.19;;;17.93;54.76
45523;BME280;31254;51.680;5.394;2022-09-30T16:11:36;100852.34;;;17.88;54.90
45523;BME280;31254;51.680;5.394;2022-09-30T16:14:10;100855.69;;;17.83;55.02
45523;BME280;31254;51.680;5.394;2022-09-30T16:16:48;100861.13;;;17.77;54.93
45523;BME280;31254;51.680;5.394;2022-09-30T16:19:17;100861.75;;;17.72;54.91
45523;BME280;31254;51.680;5.394;2022-09-30T16:21:48;100859.91;;;17.58;54.86
45523;BME280;31254;51.680;5.394;2022-09-30T16:26:57;100852.66;;;17.35;55.43
45523;BME280;31254;51.680;5.394;2022-09-30T16:29:25;100852.47;;;17.22;55.72
45523;BME280;31254;51.680;5.394;2022-09-30T16:31:54;100853.66;;;17.12;55.76
45523;BME280;31254;51.680;5.394;2022-09-30T16:34:26;100853.25;;;17.00;55.76
45523;BME280;31254;51.680;5.394;2022-09-30T16:37:03;100846.34;;;16.90;56.41
45523;BME280;31254;51.680;5.394;2022-09-30T16:39:31;100844.25;;;16.77;56.60
45523;BME280;31254;51.680;5.394;2022-09-30T16:41:57;100853.06;;;16.72;56.82
45523;BME280;31254;51.680;5.394;2022-09-30T16:44:26;100847.38;;;16.59;57.27
45523;BME280;31254;51.680;5.394;2022-09-30T16:46:53;100845.00;;;16.56;57.48